< < Back
Terminal Aerodrome Forecast


Current Version              Previous Versions:   1  2  3  4  5  6  7  8  9  

Terminal Aerodrome Forecast

469
FTUS42 KJAX 311911 AAA
TAFGNV
TAF AMD
KGNV 311911Z 3119/0118 VRB06KT P6SM VCTS SCT040CB SCT120
      TEMPO 3120/3123 VRB15G25KT 2SM TSRA BKN035CB
     FM312300 26007KT P6SM VCTS SCT050CB SCT120
     FM010200 VRB03KT P6SM FEW050 SCT100
     FM011400 28005KT P6SM SCT030=



Latest METAR

269
SAUS70 KWBC 010300 RRL
MTRGNV
METAR KGNV 010253Z AUTO 00000KT 10SM BKN120 23/19 A2995 RMK AO2 SLP140
T02280194 51009


USA.gov is the U.S. government's official web portal to all federal, state and local government web resources and services.